sensor_id;sensor_type;location;lat;lon;timestamp;P1;durP1;ratioP1;P2;durP2;ratioP2
12623;SDS011;6377;42.836;23.998;2023-02-14T00:00:32;65.40;;;34.80;;
12623;SDS011;6377;42.836;23.998;2023-02-14T00:03:03;65.77;;;35.87;;
12623;SDS011;6377;42.836;23.998;2023-02-14T00:05:31;83.20;;;44.57;;
12623;SDS011;6377;42.836;23.998;2023-02-14T00:07:59;100.00;;;52.90;;
12623;SDS011;6377;42.836;23.998;2023-02-14T00:10:27;117.07;;;59.10;;
12623;SDS011;6377;42.836;23.998;2023-02-14T00:12:55;133.40;;;66.30;;
12623;SDS011;6377;42.836;23.998;2023-02-14T00:15:25;78.47;;;38.17;;
12623;SDS011;6377;42.836;23.998;2023-02-14T00:17:53;82.50;;;41.33;;
12623;SDS011;6377;42.836;23.998;2023-02-14T00:20:24;56.80;;;30.43;;
12623;SDS011;6377;42.836;23.998;2023-02-14T00:22:58;49.27;;;27.23;;
12623;SDS011;6377;42.836;23.998;2023-02-14T00:25:27;72.37;;;36.33;;
12623;SDS011;6377;42.836;23.998;2023-02-14T00:28:01;71.17;;;37.67;;
12623;SDS011;6377;42.836;23.998;2023-02-14T00:30:31;70.13;;;38.87;;
12623;SDS011;6377;42.836;23.998;2023-02-14T00:33:00;76.17;;;36.77;;
12623;SDS011;6377;42.836;23.998;2023-02-14T00:35:37;82.27;;;38.73;;
12623;SDS011;6377;42.836;23.998;2023-02-14T00:38:06;81.43;;;39.20;;
12623;SDS011;6377;42.836;23.998;2023-02-14T00:40:34;129.23;;;58.00;;
12623;SDS011;6377;42.836;23.998;2023-02-14T00:43:02;170.27;;;73.60;;
12623;SDS011;6377;42.836;23.998;2023-02-14T00:45:32;165.30;;;72.20;;
12623;SDS011;6377;42.836;23.998;2023-02-14T00:47:59;166.23;;;75.67;;
12623;SDS011;6377;42.836;23.998;2023-02-14T00:50:27;155.30;;;71.90;;
12623;SDS011;6377;42.836;23.998;2023-02-14T00:52:54;137.13;;;64.13;;
12623;SDS011;6377;42.836;23.998;2023-02-14T00:55:22;123.47;;;57.83;;
12623;SDS011;6377;42.836;23.998;2023-02-14T00:57:50;117.30;;;58.53;;
12623;SDS011;6377;42.836;23.998;2023-02-14T01:00:20;113.40;;;58.73;;
12623;SDS011;6377;42.836;23.998;2023-02-14T01:03:00;121.40;;;56.87;;
12623;SDS011;6377;42.836;23.998;2023-02-14T01:05:28;127.27;;;61.97;;
12623;SDS011;6377;42.836;23.998;2023-02-14T01:07:55;122.77;;;60.03;;
12623;SDS011;6377;42.836;23.998;2023-02-14T01:10:26;123.60;;;62.23;;
12623;SDS011;6377;42.836;23.998;2023-02-14T01:12:54;118.37;;;59.37;;
12623;SDS011;6377;42.836;23.998;2023-02-14T01:15:22;124.50;;;61.63;;
12623;SDS011;6377;42.836;23.998;2023-02-14T01:17:50;125.30;;;61.77;;
12623;SDS011;6377;42.836;23.998;2023-02-14T01:20:20;109.97;;;56.10;;
12623;SDS011;6377;42.836;23.998;2023-02-14T01:22:48;110.57;;;54.67;;
12623;SDS011;6377;42.836;23.998;2023-02-14T01:25:17;97.10;;;49.70;;
12623;SDS011;6377;42.836;23.998;2023-02-14T01:27:51;90.90;;;48.70;;
12623;SDS011;6377;42.836;23.998;2023-02-14T01:30:22;89.20;;;46.33;;
12623;SDS011;6377;42.836;23.998;2023-02-14T01:32:51;99.30;;;50.73;;
12623;SDS011;6377;42.836;23.998;2023-02-14T01:35:20;86.83;;;42.73;;
12623;SDS011;6377;42.836;23.998;2023-02-14T01:37:48;78.40;;;41.00;;
12623;SDS011;6377;42.836;23.998;2023-02-14T01:40:16;80.40;;;42.00;;
12623;SDS011;6377;42.836;23.998;2023-02-14T01:42:48;111.87;;;52.40;;
12623;SDS011;6377;42.836;23.998;2023-02-14T01:45:18;109.90;;;56.97;;
12623;SDS011;6377;42.836;23.998;2023-02-14T01:47:48;87.77;;;45.77;;
12623;SDS011;6377;42.836;23.998;2023-02-14T01:50:23;84.23;;;40.87;;
12623;SDS011;6377;42.836;23.998;2023-02-14T01:52:56;53.47;;;27.63;;
12623;SDS011;6377;42.836;23.998;2023-02-14T01:55:29;51.73;;;27.47;;
12623;SDS011;6377;42.836;23.998;2023-02-14T01:58:03;48.80;;;26.70;;
12623;SDS011;6377;42.836;23.998;2023-02-14T02:00:38;46.60;;;23.33;;
12623;SDS011;6377;42.836;23.998;2023-02-14T02:03:27;50.17;;;25.03;;
12623;SDS011;6377;42.836;23.998;2023-02-14T02:06:06;46.20;;;25.87;;
12623;SDS011;6377;42.836;23.998;2023-02-14T02:08:46;51.73;;;26.07;;
12623;SDS011;6377;42.836;23.998;2023-02-14T02:11:20;54.20;;;27.90;;
12623;SDS011;6377;42.836;23.998;2023-02-14T02:13:51;49.60;;;28.27;;
12623;SDS011;6377;42.836;23.998;2023-02-14T02:16:24;55.83;;;29.23;;
12623;SDS011;6377;42.836;23.998;2023-02-14T02:19:16;50.17;;;27.33;;
12623;SDS011;6377;42.836;23.998;2023-02-14T02:25:18;38.17;;;20.50;;
12623;SDS011;6377;42.836;23.998;2023-02-14T02:28:02;44.47;;;25.83;;
12623;SDS011;6377;42.836;23.998;2023-02-14T02:31:03;48.63;;;27.77;;
12623;SDS011;6377;42.836;23.998;2023-02-14T02:34:02;46.87;;;28.00;;
12623;SDS011;6377;42.836;23.998;2023-02-14T02:36:51;58.37;;;32.40;;
12623;SDS011;6377;42.836;23.998;2023-02-14T02:39:32;49.57;;;29.87;;
12623;SDS011;6377;42.836;23.998;2023-02-14T02:42:18;61.07;;;33.90;;
12623;SDS011;6377;42.836;23.998;2023-02-14T02:44:56;66.93;;;37.20;;
12623;SDS011;6377;42.836;23.998;2023-02-14T02:47:36;93.40;;;47.60;;
12623;SDS011;6377;42.836;23.998;2023-02-14T02:50:12;123.57;;;56.03;;
12623;SDS011;6377;42.836;23.998;2023-02-14T02:53:15;56.33;;;31.97;;
12623;SDS011;6377;42.836;23.998;2023-02-14T02:55:49;58.30;;;31.00;;
12623;SDS011;6377;42.836;23.998;2023-02-14T02:58:44;62.23;;;32.97;;
12623;SDS011;6377;42.836;23.998;2023-02-14T03:01:20;64.33;;;33.70;;
12623;SDS011;6377;42.836;23.998;2023-02-14T03:03:57;63.70;;;34.70;;
12623;SDS011;6377;42.836;23.998;2023-02-14T03:06:49;60.83;;;32.50;;
12623;SDS011;6377;42.836;23.998;2023-02-14T03:12:28;64.37;;;34.27;;
12623;SDS011;6377;42.836;23.998;2023-02-14T03:15:20;66.67;;;34.27;;
12623;SDS011;6377;42.836;23.998;2023-02-14T03:17:59;67.73;;;35.43;;
12623;SDS011;6377;42.836;23.998;2023-02-14T03:20:41;68.40;;;35.00;;
12623;SDS011;6377;42.836;23.998;2023-02-14T03:23:22;67.20;;;36.67;;
12623;SDS011;6377;42.836;23.998;2023-02-14T03:26:00;76.67;;;40.57;;
12623;SDS011;6377;42.836;23.998;2023-02-14T03:28:36;78.20;;;41.60;;
12623;SDS011;6377;42.836;23.998;2023-02-14T03:31:16;99.17;;;47.27;;
12623;SDS011;6377;42.836;23.998;2023-02-14T03:33:53;89.33;;;47.33;;
12623;SDS011;6377;42.836;23.998;2023-02-14T03:36:26;110.30;;;52.00;;
12623;SDS011;6377;42.836;23.998;2023-02-14T03:39:05;92.17;;;46.57;;
12623;SDS011;6377;42.836;23.998;2023-02-14T03:41:42;78.53;;;40.27;;
12623;SDS011;6377;42.836;23.998;2023-02-14T03:44:17;70.43;;;36.27;;
12623;SDS011;6377;42.836;23.998;2023-02-14T03:46:53;75.93;;;39.53;;
12623;SDS011;6377;42.836;23.998;2023-02-14T03:49:28;81.27;;;41.43;;
12623;SDS011;6377;42.836;23.998;2023-02-14T03:51:59;82.70;;;42.60;;
12623;SDS011;6377;42.836;23.998;2023-02-14T03:54:30;81.87;;;43.77;;
12623;SDS011;6377;42.836;23.998;2023-02-14T03:57:06;91.50;;;44.60;;
12623;SDS011;6377;42.836;23.998;2023-02-14T03:59:41;90.50;;;43.63;;
12623;SDS011;6377;42.836;23.998;2023-02-14T04:02:10;73.87;;;39.93;;
12623;SDS011;6377;42.836;23.998;2023-02-14T04:04:43;71.03;;;37.47;;
12623;SDS011;6377;42.836;23.998;2023-02-14T04:07:16;74.13;;;37.70;;
12623;SDS011;6377;42.836;23.998;2023-02-14T04:09:48;72.80;;;39.17;;
12623;SDS011;6377;42.836;23.998;2023-02-14T04:12:18;74.03;;;38.07;;
12623;SDS011;6377;42.836;23.998;2023-02-14T04:14:52;85.33;;;43.43;;
12623;SDS011;6377;42.836;23.998;2023-02-14T04:17:20;88.20;;;46.37;;
12623;SDS011;6377;42.836;23.998;2023-02-14T04:20:06;99.87;;;48.07;;
12623;SDS011;6377;42.836;23.998;2023-02-14T04:22:35;104.73;;;51.23;;
12623;SDS011;6377;42.836;23.998;2023-02-14T04:25:03;94.67;;;49.87;;
12623;SDS011;6377;42.836;23.998;2023-02-14T04:27:38;114.23;;;58.50;;
12623;SDS011;6377;42.836;23.998;2023-02-14T04:30:07;92.23;;;45.30;;
12623;SDS011;6377;42.836;23.998;2023-02-14T04:32:37;98.77;;;48.90;;
12623;SDS011;6377;42.836;23.998;2023-02-14T04:35:13;96.80;;;45.43;;
12623;SDS011;6377;42.836;23.998;2023-02-14T04:37:45;132.23;;;67.13;;
12623;SDS011;6377;42.836;23.998;2023-02-14T04:40:17;74.97;;;39.70;;
12623;SDS011;6377;42.836;23.998;2023-02-14T04:42:51;60.43;;;34.70;;
12623;SDS011;6377;42.836;23.998;2023-02-14T04:45:20;63.80;;;33.47;;
12623;SDS011;6377;42.836;23.998;2023-02-14T04:47:48;36.93;;;21.43;;
12623;SDS011;6377;42.836;23.998;2023-02-14T04:50:20;60.90;;;34.03;;
12623;SDS011;6377;42.836;23.998;2023-02-14T04:52:50;75.27;;;38.30;;
12623;SDS011;6377;42.836;23.998;2023-02-14T04:55:18;73.37;;;40.33;;
12623;SDS011;6377;42.836;23.998;2023-02-14T04:57:51;77.67;;;39.47;;
12623;SDS011;6377;42.836;23.998;2023-02-14T05:00:19;77.33;;;40.33;;
12623;SDS011;6377;42.836;23.998;2023-02-14T05:02:50;68.60;;;37.03;;
12623;SDS011;6377;42.836;23.998;2023-02-14T05:05:18;85.40;;;41.67;;
12623;SDS011;6377;42.836;23.998;2023-02-14T05:07:51;90.37;;;45.00;;
12623;SDS011;6377;42.836;23.998;2023-02-14T05:10:19;136.20;;;66.43;;
12623;SDS011;6377;42.836;23.998;2023-02-14T05:12:47;127.03;;;62.77;;
12623;SDS011;6377;42.836;23.998;2023-02-14T05:15:19;128.93;;;58.23;;
12623;SDS011;6377;42.836;23.998;2023-02-14T05:17:48;122.90;;;60.40;;
12623;SDS011;6377;42.836;23.998;2023-02-14T05:20:17;129.20;;;60.70;;
12623;SDS011;6377;42.836;23.998;2023-02-14T05:22:48;120.97;;;60.60;;
12623;SDS011;6377;42.836;23.998;2023-02-14T05:25:16;132.40;;;67.00;;
12623;SDS011;6377;42.836;23.998;2023-02-14T05:27:44;130.20;;;63.43;;
12623;SDS011;6377;42.836;23.998;2023-02-14T05:30:12;145.90;;;72.27;;
12623;SDS011;6377;42.836;23.998;2023-02-14T05:32:43;137.50;;;69.33;;
12623;SDS011;6377;42.836;23.998;2023-02-14T05:35:14;152.03;;;80.33;;
12623;SDS011;6377;42.836;23.998;2023-02-14T05:37:45;180.90;;;90.63;;
12623;SDS011;6377;42.836;23.998;2023-02-14T05:40:15;190.60;;;94.33;;
12623;SDS011;6377;42.836;23.998;2023-02-14T05:42:46;183.63;;;94.63;;
12623;SDS011;6377;42.836;23.998;2023-02-14T05:45:14;191.87;;;94.03;;
12623;SDS011;6377;42.836;23.998;2023-02-14T05:47:43;185.30;;;94.77;;
12623;SDS011;6377;42.836;23.998;2023-02-14T05:50:11;170.07;;;87.00;;
12623;SDS011;6377;42.836;23.998;2023-02-14T05:52:39;164.60;;;85.13;;
12623;SDS011;6377;42.836;23.998;2023-02-14T05:55:10;240.30;;;125.40;;
12623;SDS011;6377;42.836;23.998;2023-02-14T05:57:38;250.63;;;120.63;;
12623;SDS011;6377;42.836;23.998;2023-02-14T06:00:09;268.53;;;126.37;;
12623;SDS011;6377;42.836;23.998;2023-02-14T06:02:45;249.03;;;125.77;;
12623;SDS011;6377;42.836;23.998;2023-02-14T06:05:13;273.17;;;135.97;;
12623;SDS011;6377;42.836;23.998;2023-02-14T06:07:47;235.70;;;115.93;;
12623;SDS011;6377;42.836;23.998;2023-02-14T06:10:17;244.77;;;118.23;;
12623;SDS011;6377;42.836;23.998;2023-02-14T06:12:47;220.83;;;112.40;;
12623;SDS011;6377;42.836;23.998;2023-02-14T06:15:19;143.63;;;74.20;;
12623;SDS011;6377;42.836;23.998;2023-02-14T06:17:52;109.40;;;53.20;;
12623;SDS011;6377;42.836;23.998;2023-02-14T06:20:22;118.37;;;60.20;;
12623;SDS011;6377;42.836;23.998;2023-02-14T06:22:53;140.30;;;68.77;;
12623;SDS011;6377;42.836;23.998;2023-02-14T06:25:22;144.30;;;71.10;;
12623;SDS011;6377;42.836;23.998;2023-02-14T06:27:54;140.67;;;67.50;;
12623;SDS011;6377;42.836;23.998;2023-02-14T06:30:25;122.23;;;64.57;;
12623;SDS011;6377;42.836;23.998;2023-02-14T06:32:56;112.50;;;59.27;;
12623;SDS011;6377;42.836;23.998;2023-02-14T06:35:26;113.87;;;57.53;;
12623;SDS011;6377;42.836;23.998;2023-02-14T06:37:57;124.57;;;63.53;;
12623;SDS011;6377;42.836;23.998;2023-02-14T06:40:25;113.63;;;54.33;;
12623;SDS011;6377;42.836;23.998;2023-02-14T06:42:55;98.80;;;50.97;;
12623;SDS011;6377;42.836;23.998;2023-02-14T06:45:24;117.03;;;59.53;;
12623;SDS011;6377;42.836;23.998;2023-02-14T06:47:51;104.53;;;54.77;;
12623;SDS011;6377;42.836;23.998;2023-02-14T06:50:21;104.30;;;57.10;;
12623;SDS011;6377;42.836;23.998;2023-02-14T06:52:50;108.07;;;57.27;;
12623;SDS011;6377;42.836;23.998;2023-02-14T06:55:21;112.83;;;60.07;;
12623;SDS011;6377;42.836;23.998;2023-02-14T06:57:49;110.67;;;60.80;;
12623;SDS011;6377;42.836;23.998;2023-02-14T07:00:17;153.10;;;76.27;;
12623;SDS011;6377;42.836;23.998;2023-02-14T07:02:50;113.10;;;61.63;;
12623;SDS011;6377;42.836;23.998;2023-02-14T07:05:28;118.60;;;65.93;;
12623;SDS011;6377;42.836;23.998;2023-02-14T07:07:59;140.10;;;74.37;;
12623;SDS011;6377;42.836;23.998;2023-02-14T07:10:27;134.07;;;68.77;;
12623;SDS011;6377;42.836;23.998;2023-02-14T07:12:56;116.43;;;62.87;;
12623;SDS011;6377;42.836;23.998;2023-02-14T07:15:27;117.00;;;65.40;;
12623;SDS011;6377;42.836;23.998;2023-02-14T07:17:55;121.47;;;65.50;;
12623;SDS011;6377;42.836;23.998;2023-02-14T07:20:23;171.50;;;89.37;;
12623;SDS011;6377;42.836;23.998;2023-02-14T07:22:55;186.70;;;101.10;;
12623;SDS011;6377;42.836;23.998;2023-02-14T07:25:23;151.60;;;85.53;;
12623;SDS011;6377;42.836;23.998;2023-02-14T07:27:54;171.27;;;90.40;;
12623;SDS011;6377;42.836;23.998;2023-02-14T07:30:27;129.63;;;68.13;;
12623;SDS011;6377;42.836;23.998;2023-02-14T07:32:58;129.20;;;71.57;;
12623;SDS011;6377;42.836;23.998;2023-02-14T07:35:30;124.40;;;69.63;;
12623;SDS011;6377;42.836;23.998;2023-02-14T07:37:59;145.27;;;79.73;;
12623;SDS011;6377;42.836;23.998;2023-02-14T07:40:27;132.70;;;75.67;;
12623;SDS011;6377;42.836;23.998;2023-02-14T07:42:56;128.03;;;76.10;;
12623;SDS011;6377;42.836;23.998;2023-02-14T07:45:25;149.67;;;81.27;;
12623;SDS011;6377;42.836;23.998;2023-02-14T07:47:53;134.87;;;76.07;;
12623;SDS011;6377;42.836;23.998;2023-02-14T07:50:25;128.37;;;73.10;;
12623;SDS011;6377;42.836;23.998;2023-02-14T07:52:56;131.57;;;75.03;;
12623;SDS011;6377;42.836;23.998;2023-02-14T07:55:26;98.70;;;57.27;;
12623;SDS011;6377;42.836;23.998;2023-02-14T07:57:55;86.07;;;51.63;;
12623;SDS011;6377;42.836;23.998;2023-02-14T08:00:23;92.57;;;54.23;;
12623;SDS011;6377;42.836;23.998;2023-02-14T08:02:50;87.93;;;49.73;;
12623;SDS011;6377;42.836;23.998;2023-02-14T08:05:20;75.40;;;45.37;;
12623;SDS011;6377;42.836;23.998;2023-02-14T08:07:47;86.07;;;48.20;;
12623;SDS011;6377;42.836;23.998;2023-02-14T08:10:17;73.93;;;41.93;;
12623;SDS011;6377;42.836;23.998;2023-02-14T08:12:44;76.73;;;44.33;;
12623;SDS011;6377;42.836;23.998;2023-02-14T08:15:24;78.87;;;45.77;;
12623;SDS011;6377;42.836;23.998;2023-02-14T08:18:10;75.93;;;44.10;;
12623;SDS011;6377;42.836;23.998;2023-02-14T08:20:39;56.37;;;34.37;;
12623;SDS011;6377;42.836;23.998;2023-02-14T08:23:08;32.90;;;20.80;;
12623;SDS011;6377;42.836;23.998;2023-02-14T08:25:38;33.53;;;20.97;;
12623;SDS011;6377;42.836;23.998;2023-02-14T08:28:05;36.37;;;20.77;;
12623;SDS011;6377;42.836;23.998;2023-02-14T08:30:34;31.17;;;18.67;;
12623;SDS011;6377;42.836;23.998;2023-02-14T08:33:03;36.80;;;21.73;;
12623;SDS011;6377;42.836;23.998;2023-02-14T08:35:31;28.77;;;17.53;;
12623;SDS011;6377;42.836;23.998;2023-02-14T08:37:59;26.07;;;16.03;;
12623;SDS011;6377;42.836;23.998;2023-02-14T08:40:29;29.20;;;17.43;;
12623;SDS011;6377;42.836;23.998;2023-02-14T08:43:05;19.20;;;12.13;;
12623;SDS011;6377;42.836;23.998;2023-02-14T08:45:33;23.27;;;14.50;;
12623;SDS011;6377;42.836;23.998;2023-02-14T08:48:01;30.83;;;18.50;;
12623;SDS011;6377;42.836;23.998;2023-02-14T08:50:30;39.57;;;21.63;;
12623;SDS011;6377;42.836;23.998;2023-02-14T08:52:58;35.17;;;21.33;;
12623;SDS011;6377;42.836;23.998;2023-02-14T08:55:25;47.50;;;27.70;;
12623;SDS011;6377;42.836;23.998;2023-02-14T08:57:53;34.07;;;20.10;;
12623;SDS011;6377;42.836;23.998;2023-02-14T09:00:23;29.43;;;17.47;;
12623;SDS011;6377;42.836;23.998;2023-02-14T09:02:51;29.17;;;17.23;;
12623;SDS011;6377;42.836;23.998;2023-02-14T09:05:18;27.53;;;16.33;;
12623;SDS011;6377;42.836;23.998;2023-02-14T09:07:47;31.63;;;18.87;;
12623;SDS011;6377;42.836;23.998;2023-02-14T09:10:15;70.87;;;37.90;;
12623;SDS011;6377;42.836;23.998;2023-02-14T09:12:43;30.53;;;18.80;;
12623;SDS011;6377;42.836;23.998;2023-02-14T09:15:11;95.53;;;47.77;;
12623;SDS011;6377;42.836;23.998;2023-02-14T09:17:40;46.27;;;26.60;;
12623;SDS011;6377;42.836;23.998;2023-02-14T09:20:08;34.73;;;20.83;;
12623;SDS011;6377;42.836;23.998;2023-02-14T09:22:37;43.80;;;24.90;;
12623;SDS011;6377;42.836;23.998;2023-02-14T09:25:04;51.73;;;30.63;;
12623;SDS011;6377;42.836;23.998;2023-02-14T09:27:31;53.30;;;30.70;;
12623;SDS011;6377;42.836;23.998;2023-02-14T09:29:59;39.87;;;24.17;;
12623;SDS011;6377;42.836;23.998;2023-02-14T09:32:26;28.13;;;18.50;;
12623;SDS011;6377;42.836;23.998;2023-02-14T09:34:55;32.23;;;20.27;;
12623;SDS011;6377;42.836;23.998;2023-02-14T09:37:22;35.50;;;23.87;;
12623;SDS011;6377;42.836;23.998;2023-02-14T09:40:07;31.10;;;19.80;;
12623;SDS011;6377;42.836;23.998;2023-02-14T09:42:44;31.37;;;18.67;;
12623;SDS011;6377;42.836;23.998;2023-02-14T09:45:19;26.70;;;16.97;;
12623;SDS011;6377;42.836;23.998;2023-02-14T09:47:49;29.93;;;18.00;;
12623;SDS011;6377;42.836;23.998;2023-02-14T09:50:23;27.13;;;16.50;;
12623;SDS011;6377;42.836;23.998;2023-02-14T09:52:55;26.93;;;16.23;;
12623;SDS011;6377;42.836;23.998;2023-02-14T09:55:25;25.13;;;17.13;;
12623;SDS011;6377;42.836;23.998;2023-02-14T09:58:04;29.00;;;18.97;;
12623;SDS011;6377;42.836;23.998;2023-02-14T10:00:39;26.03;;;19.00;;
12623;SDS011;6377;42.836;23.998;2023-02-14T10:06:05;24.17;;;15.63;;
12623;SDS011;6377;42.836;23.998;2023-02-14T10:08:41;20.83;;;13.77;;
12623;SDS011;6377;42.836;23.998;2023-02-14T10:11:18;30.70;;;16.27;;
12623;SDS011;6377;42.836;23.998;2023-02-14T10:13:49;28.10;;;15.63;;
12623;SDS011;6377;42.836;23.998;2023-02-14T10:16:21;27.43;;;16.37;;
12623;SDS011;6377;42.836;23.998;2023-02-14T10:18:53;22.57;;;14.37;;
12623;SDS011;6377;42.836;23.998;2023-02-14T10:21:26;27.77;;;17.10;;
12623;SDS011;6377;42.836;23.998;2023-02-14T10:23:59;24.60;;;16.53;;
12623;SDS011;6377;42.836;23.998;2023-02-14T10:26:32;26.47;;;18.37;;
12623;SDS011;6377;42.836;23.998;2023-02-14T10:29:02;22.13;;;13.73;;
12623;SDS011;6377;42.836;23.998;2023-02-14T10:31:34;17.30;;;11.70;;
12623;SDS011;6377;42.836;23.998;2023-02-14T10:34:07;20.43;;;13.37;;
12623;SDS011;6377;42.836;23.998;2023-02-14T10:36:51;29.40;;;17.60;;
12623;SDS011;6377;42.836;23.998;2023-02-14T10:39:29;22.40;;;13.63;;
12623;SDS011;6377;42.836;23.998;2023-02-14T10:42:14;22.73;;;15.00;;
12623;SDS011;6377;42.836;23.998;2023-02-14T10:44:53;24.77;;;15.83;;
12623;SDS011;6377;42.836;23.998;2023-02-14T10:47:32;20.27;;;12.10;;
12623;SDS011;6377;42.836;23.998;2023-02-14T10:50:13;19.53;;;12.10;;
12623;SDS011;6377;42.836;23.998;2023-02-14T10:52:47;24.57;;;15.30;;
12623;SDS011;6377;42.836;23.998;2023-02-14T10:55:25;31.03;;;18.43;;
12623;SDS011;6377;42.836;23.998;2023-02-14T10:58:05;30.80;;;16.67;;
12623;SDS011;6377;42.836;23.998;2023-02-14T11:00:37;26.00;;;17.10;;
12623;SDS011;6377;42.836;23.998;2023-02-14T11:03:23;25.83;;;16.77;;
12623;SDS011;6377;42.836;23.998;2023-02-14T11:05:51;23.73;;;15.03;;
12623;SDS011;6377;42.836;23.998;2023-02-14T11:08:23;24.10;;;17.03;;
12623;SDS011;6377;42.836;23.998;2023-02-14T11:10:53;25.70;;;15.23;;
12623;SDS011;6377;42.836;23.998;2023-02-14T11:13:25;24.70;;;16.03;;
12623;SDS011;6377;42.836;23.998;2023-02-14T11:15:57;29.27;;;21.07;;
12623;SDS011;6377;42.836;23.998;2023-02-14T11:18:26;32.33;;;19.37;;
12623;SDS011;6377;42.836;23.998;2023-02-14T11:21:01;25.80;;;18.07;;
12623;SDS011;6377;42.836;23.998;2023-02-14T11:23:32;27.57;;;16.10;;
12623;SDS011;6377;42.836;23.998;2023-02-14T11:26:08;25.30;;;15.87;;
12623;SDS011;6377;42.836;23.998;2023-02-14T11:28:45;24.10;;;16.30;;
12623;SDS011;6377;42.836;23.998;2023-02-14T11:31:23;27.60;;;17.37;;
12623;SDS011;6377;42.836;23.998;2023-02-14T11:33:53;25.60;;;15.93;;
12623;SDS011;6377;42.836;23.998;2023-02-14T11:36:20;27.07;;;16.43;;
12623;SDS011;6377;42.836;23.998;2023-02-14T11:39:04;27.70;;;17.27;;
12623;SDS011;6377;42.836;23.998;2023-02-14T11:41:46;29.43;;;16.97;;
12623;SDS011;6377;42.836;23.998;2023-02-14T11:44:15;25.67;;;15.97;;
12623;SDS011;6377;42.836;23.998;2023-02-14T11:46:47;28.10;;;17.23;;
12623;SDS011;6377;42.836;23.998;2023-02-14T11:49:23;28.70;;;18.93;;
12623;SDS011;6377;42.836;23.998;2023-02-14T11:51:53;31.43;;;18.30;;
12623;SDS011;6377;42.836;23.998;2023-02-14T11:54:36;27.00;;;16.53;;
12623;SDS011;6377;42.836;23.998;2023-02-14T11:57:05;25.40;;;15.83;;
12623;SDS011;6377;42.836;23.998;2023-02-14T11:59:39;29.03;;;16.90;;
12623;SDS011;6377;42.836;23.998;2023-02-14T12:02:21;30.57;;;17.97;;
12623;SDS011;6377;42.836;23.998;2023-02-14T12:04:53;30.80;;;18.30;;
12623;SDS011;6377;42.836;23.998;2023-02-14T12:07:24;33.60;;;20.47;;
12623;SDS011;6377;42.836;23.998;2023-02-14T12:10:18;33.50;;;20.03;;
12623;SDS011;6377;42.836;23.998;2023-02-14T12:12:49;31.07;;;18.37;;
12623;SDS011;6377;42.836;23.998;2023-02-14T12:15:25;29.20;;;17.37;;
12623;SDS011;6377;42.836;23.998;2023-02-14T12:18:01;32.53;;;18.63;;
12623;SDS011;6377;42.836;23.998;2023-02-14T12:20:48;32.63;;;18.80;;
12623;SDS011;6377;42.836;23.998;2023-02-14T12:23:23;40.40;;;22.50;;
12623;SDS011;6377;42.836;23.998;2023-02-14T12:25:59;38.07;;;23.03;;
12623;SDS011;6377;42.836;23.998;2023-02-14T12:28:30;33.10;;;19.63;;
12623;SDS011;6377;42.836;23.998;2023-02-14T12:31:07;35.43;;;21.67;;
12623;SDS011;6377;42.836;23.998;2023-02-14T12:33:36;37.30;;;22.23;;
12623;SDS011;6377;42.836;23.998;2023-02-14T12:36:07;34.87;;;19.90;;
12623;SDS011;6377;42.836;23.998;2023-02-14T12:38:41;37.20;;;20.20;;
12623;SDS011;6377;42.836;23.998;2023-02-14T12:41:31;45.73;;;23.80;;
12623;SDS011;6377;42.836;23.998;2023-02-14T12:44:06;31.33;;;17.77;;
12623;SDS011;6377;42.836;23.998;2023-02-14T12:50:01;53.73;;;27.73;;
12623;SDS011;6377;42.836;23.998;2023-02-14T12:52:47;63.40;;;32.47;;
12623;SDS011;6377;42.836;23.998;2023-02-14T12:55:28;60.63;;;31.67;;
12623;SDS011;6377;42.836;23.998;2023-02-14T12:58:12;41.83;;;24.30;;
12623;SDS011;6377;42.836;23.998;2023-02-14T13:00:54;42.40;;;24.00;;
12623;SDS011;6377;42.836;23.998;2023-02-14T13:03:57;44.60;;;25.27;;
12623;SDS011;6377;42.836;23.998;2023-02-14T13:06:52;40.80;;;24.27;;
12623;SDS011;6377;42.836;23.998;2023-02-14T13:09:28;41.13;;;25.07;;
12623;SDS011;6377;42.836;23.998;2023-02-14T13:12:09;39.80;;;25.10;;
12623;SDS011;6377;42.836;23.998;2023-02-14T13:14:59;43.97;;;27.20;;
12623;SDS011;6377;42.836;23.998;2023-02-14T13:17:37;46.87;;;27.90;;
12623;SDS011;6377;42.836;23.998;2023-02-14T13:20:20;52.97;;;30.23;;
12623;SDS011;6377;42.836;23.998;2023-02-14T13:23:10;54.37;;;31.13;;
12623;SDS011;6377;42.836;23.998;2023-02-14T13:25:43;41.40;;;22.90;;
12623;SDS011;6377;42.836;23.998;2023-02-14T13:28:14;45.17;;;25.63;;
12623;SDS011;6377;42.836;23.998;2023-02-14T13:30:44;62.13;;;32.00;;
12623;SDS011;6377;42.836;23.998;2023-02-14T13:33:20;60.47;;;32.90;;
12623;SDS011;6377;42.836;23.998;2023-02-14T13:35:52;52.57;;;29.73;;
12623;SDS011;6377;42.836;23.998;2023-02-14T13:38:23;44.10;;;26.37;;
12623;SDS011;6377;42.836;23.998;2023-02-14T13:40:52;44.93;;;24.80;;
12623;SDS011;6377;42.836;23.998;2023-02-14T13:46:15;44.90;;;24.97;;
12623;SDS011;6377;42.836;23.998;2023-02-14T13:48:59;34.93;;;19.60;;
12623;SDS011;6377;42.836;23.998;2023-02-14T13:51:45;39.93;;;23.30;;
12623;SDS011;6377;42.836;23.998;2023-02-14T13:54:20;57.57;;;32.30;;
12623;SDS011;6377;42.836;23.998;2023-02-14T13:56:55;37.07;;;21.57;;
12623;SDS011;6377;42.836;23.998;2023-02-14T13:59:24;43.50;;;27.00;;
12623;SDS011;6377;42.836;23.998;2023-02-14T14:01:55;41.97;;;23.80;;
12623;SDS011;6377;42.836;23.998;2023-02-14T14:11:02;27.93;;;17.23;;
12623;SDS011;6377;42.836;23.998;2023-02-14T14:13:56;33.70;;;20.83;;
12623;SDS011;6377;42.836;23.998;2023-02-14T14:16:26;45.47;;;26.13;;
12623;SDS011;6377;42.836;23.998;2023-02-14T14:18:59;28.17;;;17.73;;
12623;SDS011;6377;42.836;23.998;2023-02-14T14:21:29;26.90;;;17.83;;
12623;SDS011;6377;42.836;23.998;2023-02-14T14:26:49;27.57;;;13.10;;
12623;SDS011;6377;42.836;23.998;2023-02-14T14:29:24;25.40;;;13.63;;
12623;SDS011;6377;42.836;23.998;2023-02-14T14:31:55;32.13;;;19.90;;
12623;SDS011;6377;42.836;23.998;2023-02-14T14:34:27;32.57;;;21.07;;
12623;SDS011;6377;42.836;23.998;2023-02-14T14:37:03;47.90;;;28.90;;
12623;SDS011;6377;42.836;23.998;2023-02-14T14:39:32;38.77;;;23.90;;
12623;SDS011;6377;42.836;23.998;2023-02-14T14:42:04;28.10;;;17.80;;
12623;SDS011;6377;42.836;23.998;2023-02-14T14:44:32;24.03;;;15.03;;
12623;SDS011;6377;42.836;23.998;2023-02-14T14:47:00;16.93;;;11.30;;
12623;SDS011;6377;42.836;23.998;2023-02-14T14:49:30;25.03;;;15.70;;
12623;SDS011;6377;42.836;23.998;2023-02-14T14:51:58;18.23;;;12.90;;
12623;SDS011;6377;42.836;23.998;2023-02-14T14:54:27;22.43;;;14.10;;
12623;SDS011;6377;42.836;23.998;2023-02-14T14:56:58;16.50;;;10.37;;
12623;SDS011;6377;42.836;23.998;2023-02-14T14:59:28;23.43;;;14.03;;
12623;SDS011;6377;42.836;23.998;2023-02-14T15:01:59;24.87;;;14.13;;
12623;SDS011;6377;42.836;23.998;2023-02-14T15:04:27;28.87;;;17.57;;
12623;SDS011;6377;42.836;23.998;2023-02-14T15:09:44;23.43;;;15.27;;
12623;SDS011;6377;42.836;23.998;2023-02-14T15:12:19;18.50;;;11.80;;
12623;SDS011;6377;42.836;23.998;2023-02-14T15:15:09;23.40;;;14.77;;
12623;SDS011;6377;42.836;23.998;2023-02-14T15:17:38;52.90;;;28.93;;
12623;SDS011;6377;42.836;23.998;2023-02-14T15:20:14;42.30;;;24.80;;